sensor_id;sensor_type;location;lat;lon;timestamp;P1;durP1;ratioP1;P2;durP2;ratioP2
71095;SDS011;58753;49.440;11.126;2023-02-12T00:00:01;37.10;;;15.93;;
71095;SDS011;58753;49.440;11.126;2023-02-12T00:02:29;34.00;;;16.33;;
71095;SDS011;58753;49.440;11.126;2023-02-12T00:04:55;38.43;;;17.27;;
71095;SDS011;58753;49.440;11.126;2023-02-12T00:07:20;39.17;;;17.30;;
71095;SDS011;58753;49.440;11.126;2023-02-12T00:09:45;34.97;;;16.57;;
71095;SDS011;58753;49.440;11.126;2023-02-12T00:12:10;36.78;;;16.35;;
71095;SDS011;58753;49.440;11.126;2023-02-12T00:14:36;37.10;;;15.93;;
71095;SDS011;58753;49.440;11.126;2023-02-12T00:17:02;34.00;;;16.30;;
71095;SDS011;58753;49.440;11.126;2023-02-12T00:19:28;38.10;;;16.63;;
71095;SDS011;58753;49.440;11.126;2023-02-12T00:21:54;34.33;;;15.38;;
71095;SDS011;58753;49.440;11.126;2023-02-12T00:24:19;39.67;;;17.13;;
71095;SDS011;58753;49.440;11.126;2023-02-12T00:26:45;33.38;;;15.77;;
71095;SDS011;58753;49.440;11.126;2023-02-12T00:29:12;35.93;;;16.73;;
71095;SDS011;58753;49.440;11.126;2023-02-12T00:31:38;35.45;;;15.30;;
71095;SDS011;58753;49.440;11.126;2023-02-12T00:34:03;32.43;;;14.20;;
71095;SDS011;58753;49.440;11.126;2023-02-12T00:36:29;36.03;;;15.80;;
71095;SDS011;58753;49.440;11.126;2023-02-12T00:38:56;33.03;;;15.30;;
71095;SDS011;58753;49.440;11.126;2023-02-12T00:41:22;34.65;;;15.57;;
71095;SDS011;58753;49.440;11.126;2023-02-12T00:43:48;30.03;;;13.53;;
71095;SDS011;58753;49.440;11.126;2023-02-12T00:46:14;33.60;;;14.43;;
71095;SDS011;58753;49.440;11.126;2023-02-12T00:48:40;33.13;;;15.40;;
71095;SDS011;58753;49.440;11.126;2023-02-12T00:51:05;27.73;;;13.80;;
71095;SDS011;58753;49.440;11.126;2023-02-12T00:53:31;35.27;;;15.57;;
71095;SDS011;58753;49.440;11.126;2023-02-12T00:55:57;30.58;;;15.15;;
71095;SDS011;58753;49.440;11.126;2023-02-12T00:58:22;33.88;;;15.25;;
71095;SDS011;58753;49.440;11.126;2023-02-12T01:00:48;34.07;;;16.50;;
71095;SDS011;58753;49.440;11.126;2023-02-12T01:03:14;34.10;;;17.03;;
71095;SDS011;58753;49.440;11.126;2023-02-12T01:05:39;32.57;;;14.43;;
71095;SDS011;58753;49.440;11.126;2023-02-12T01:08:05;35.00;;;16.63;;
71095;SDS011;58753;49.440;11.126;2023-02-12T01:10:31;30.83;;;14.73;;
71095;SDS011;58753;49.440;11.126;2023-02-12T01:12:56;33.20;;;15.40;;
71095;SDS011;58753;49.440;11.126;2023-02-12T01:15:22;34.70;;;15.65;;
71095;SDS011;58753;49.440;11.126;2023-02-12T01:17:49;31.27;;;15.47;;
71095;SDS011;58753;49.440;11.126;2023-02-12T01:20:16;31.30;;;14.13;;
71095;SDS011;58753;49.440;11.126;2023-02-12T01:22:42;36.60;;;15.23;;
71095;SDS011;58753;49.440;11.126;2023-02-12T01:25:08;32.93;;;15.60;;
71095;SDS011;58753;49.440;11.126;2023-02-12T01:27:35;33.90;;;17.67;;
71095;SDS011;58753;49.440;11.126;2023-02-12T01:30:00;30.63;;;15.27;;
71095;SDS011;58753;49.440;11.126;2023-02-12T01:32:26;33.37;;;15.17;;
71095;SDS011;58753;49.440;11.126;2023-02-12T01:34:52;34.25;;;14.65;;
71095;SDS011;58753;49.440;11.126;2023-02-12T01:37:17;37.40;;;15.77;;
71095;SDS011;58753;49.440;11.126;2023-02-12T01:39:42;32.10;;;14.07;;
71095;SDS011;58753;49.440;11.126;2023-02-12T01:42:12;35.13;;;15.80;;
71095;SDS011;58753;49.440;11.126;2023-02-12T01:44:42;30.40;;;14.50;;
71095;SDS011;58753;49.440;11.126;2023-02-12T01:47:26;32.47;;;15.07;;
71095;SDS011;58753;49.440;11.126;2023-02-12T01:49:51;30.73;;;14.37;;
71095;SDS011;58753;49.440;11.126;2023-02-12T01:52:21;28.83;;;13.90;;
71095;SDS011;58753;49.440;11.126;2023-02-12T01:54:54;33.70;;;13.63;;
71095;SDS011;58753;49.440;11.126;2023-02-12T01:57:23;27.92;;;12.93;;
71095;SDS011;58753;49.440;11.126;2023-02-12T01:59:52;33.95;;;14.05;;
71095;SDS011;58753;49.440;11.126;2023-02-12T02:02:20;29.52;;;13.95;;
71095;SDS011;58753;49.440;11.126;2023-02-12T02:04:47;29.30;;;12.97;;
71095;SDS011;58753;49.440;11.126;2023-02-12T02:07:15;28.42;;;13.52;;
71095;SDS011;58753;49.440;11.126;2023-02-12T02:09:41;27.40;;;12.33;;
71095;SDS011;58753;49.440;11.126;2023-02-12T02:12:07;27.58;;;12.68;;
71095;SDS011;58753;49.440;11.126;2023-02-12T02:14:54;33.03;;;14.75;;
71095;SDS011;58753;49.440;11.126;2023-02-12T02:31:40;28.50;;;13.35;;
71095;SDS011;58753;49.440;11.126;2023-02-12T02:39:35;23.83;;;10.68;;
71095;SDS011;58753;49.440;11.126;2023-02-12T02:42:25;21.63;;;9.98;;
71095;SDS011;58753;49.440;11.126;2023-02-12T02:45:14;26.00;;;10.65;;
71095;SDS011;58753;49.440;11.126;2023-02-12T02:47:45;25.88;;;12.73;;
71095;SDS011;58753;49.440;11.126;2023-02-12T02:50:19;29.03;;;11.80;;
71095;SDS011;58753;49.440;11.126;2023-02-12T02:52:49;29.30;;;12.45;;
71095;SDS011;58753;49.440;11.126;2023-02-12T02:55:21;28.05;;;11.52;;
71095;SDS011;58753;49.440;11.126;2023-02-12T02:58:03;21.00;;;10.27;;
71095;SDS011;58753;49.440;11.126;2023-02-12T03:00:35;21.95;;;10.73;;
71095;SDS011;58753;49.440;11.126;2023-02-12T03:03:09;19.67;;;10.27;;
71095;SDS011;58753;49.440;11.126;2023-02-12T03:05:41;26.63;;;10.90;;
71095;SDS011;58753;49.440;11.126;2023-02-12T03:08:19;23.60;;;10.10;;
71095;SDS011;58753;49.440;11.126;2023-02-12T03:10:55;17.70;;;8.60;;
71095;SDS011;58753;49.440;11.126;2023-02-12T03:16:03;15.93;;;7.47;;
71095;SDS011;58753;49.440;11.126;2023-02-12T03:18:54;18.15;;;8.90;;
71095;SDS011;58753;49.440;11.126;2023-02-12T03:21:34;17.40;;;8.13;;
71095;SDS011;58753;49.440;11.126;2023-02-12T03:26:58;17.67;;;6.90;;
71095;SDS011;58753;49.440;11.126;2023-02-12T03:29:31;17.40;;;8.40;;
71095;SDS011;58753;49.440;11.126;2023-02-12T03:37:34;18.48;;;8.63;;
71095;SDS011;58753;49.440;11.126;2023-02-12T03:42:39;16.15;;;6.78;;
71095;SDS011;58753;49.440;11.126;2023-02-12T03:45:28;16.85;;;7.38;;
71095;SDS011;58753;49.440;11.126;2023-02-12T03:50:41;15.38;;;6.47;;
71095;SDS011;58753;49.440;11.126;2023-02-12T03:53:12;13.87;;;6.50;;
71095;SDS011;58753;49.440;11.126;2023-02-12T03:55:39;14.38;;;6.22;;
71095;SDS011;58753;49.440;11.126;2023-02-12T03:58:08;15.57;;;6.70;;
71095;SDS011;58753;49.440;11.126;2023-02-12T04:00:38;16.60;;;6.85;;
71095;SDS011;58753;49.440;11.126;2023-02-12T04:03:05;14.85;;;6.50;;
71095;SDS011;58753;49.440;11.126;2023-02-12T04:05:31;13.73;;;6.20;;
71095;SDS011;58753;49.440;11.126;2023-02-12T04:07:57;16.10;;;7.37;;
71095;SDS011;58753;49.440;11.126;2023-02-12T04:10:26;13.25;;;6.35;;
71095;SDS011;58753;49.440;11.126;2023-02-12T04:13:05;13.07;;;6.15;;
71095;SDS011;58753;49.440;11.126;2023-02-12T04:16:06;14.30;;;6.67;;
71095;SDS011;58753;49.440;11.126;2023-02-12T04:18:46;12.85;;;5.95;;
71095;SDS011;58753;49.440;11.126;2023-02-12T04:32:08;12.50;;;5.95;;
71095;SDS011;58753;49.440;11.126;2023-02-12T04:34:57;13.23;;;6.10;;
71095;SDS011;58753;49.440;11.126;2023-02-12T04:40:21;12.25;;;5.93;;
71095;SDS011;58753;49.440;11.126;2023-02-12T04:42:48;11.65;;;5.60;;
71095;SDS011;58753;49.440;11.126;2023-02-12T04:45:18;17.90;;;6.65;;
71095;SDS011;58753;49.440;11.126;2023-02-12T04:47:48;13.20;;;5.73;;
71095;SDS011;58753;49.440;11.126;2023-02-12T04:50:13;13.00;;;5.75;;
71095;SDS011;58753;49.440;11.126;2023-02-12T04:52:39;14.20;;;6.57;;
71095;SDS011;58753;49.440;11.126;2023-02-12T04:55:04;11.97;;;6.03;;
71095;SDS011;58753;49.440;11.126;2023-02-12T04:57:30;13.17;;;5.90;;
71095;SDS011;58753;49.440;11.126;2023-02-12T04:59:55;14.83;;;7.53;;
71095;SDS011;58753;49.440;11.126;2023-02-12T05:02:20;13.97;;;6.90;;
71095;SDS011;58753;49.440;11.126;2023-02-12T05:04:47;13.77;;;6.57;;
71095;SDS011;58753;49.440;11.126;2023-02-12T05:07:13;16.55;;;7.18;;
71095;SDS011;58753;49.440;11.126;2023-02-12T05:09:38;13.63;;;7.37;;
71095;SDS011;58753;49.440;11.126;2023-02-12T05:12:04;15.10;;;7.15;;
71095;SDS011;58753;49.440;11.126;2023-02-12T05:14:29;14.67;;;6.93;;
71095;SDS011;58753;49.440;11.126;2023-02-12T05:16:55;14.67;;;6.73;;
71095;SDS011;58753;49.440;11.126;2023-02-12T05:19:20;16.37;;;7.00;;
71095;SDS011;58753;49.440;11.126;2023-02-12T05:21:48;15.43;;;6.88;;
71095;SDS011;58753;49.440;11.126;2023-02-12T05:24:14;15.23;;;6.87;;
71095;SDS011;58753;49.440;11.126;2023-02-12T05:26:39;18.30;;;6.90;;
71095;SDS011;58753;49.440;11.126;2023-02-12T05:29:05;14.83;;;6.97;;
71095;SDS011;58753;49.440;11.126;2023-02-12T05:31:30;15.87;;;7.30;;
71095;SDS011;58753;49.440;11.126;2023-02-12T05:33:55;14.23;;;7.17;;
71095;SDS011;58753;49.440;11.126;2023-02-12T05:36:21;12.97;;;6.80;;
71095;SDS011;58753;49.440;11.126;2023-02-12T05:38:48;12.65;;;5.80;;
71095;SDS011;58753;49.440;11.126;2023-02-12T05:41:15;13.75;;;6.90;;
71095;SDS011;58753;49.440;11.126;2023-02-12T05:43:45;14.68;;;6.93;;
71095;SDS011;58753;49.440;11.126;2023-02-12T05:46:11;14.45;;;7.50;;
71095;SDS011;58753;49.440;11.126;2023-02-12T05:48:38;15.80;;;6.77;;
71095;SDS011;58753;49.440;11.126;2023-02-12T05:51:05;15.15;;;6.80;;
71095;SDS011;58753;49.440;11.126;2023-02-12T05:53:32;16.95;;;8.07;;
71095;SDS011;58753;49.440;11.126;2023-02-12T05:56:19;18.93;;;7.87;;
71095;SDS011;58753;49.440;11.126;2023-02-12T05:58:45;17.98;;;8.32;;
71095;SDS011;58753;49.440;11.126;2023-02-12T06:03:39;15.90;;;7.82;;
71095;SDS011;58753;49.440;11.126;2023-02-12T06:06:05;17.40;;;7.57;;
71095;SDS011;58753;49.440;11.126;2023-02-12T06:08:31;12.10;;;6.60;;
71095;SDS011;58753;49.440;11.126;2023-02-12T06:11:00;19.13;;;8.50;;
71095;SDS011;58753;49.440;11.126;2023-02-12T06:13:27;19.10;;;7.68;;
71095;SDS011;58753;49.440;11.126;2023-02-12T06:15:53;19.98;;;9.00;;
71095;SDS011;58753;49.440;11.126;2023-02-12T06:18:19;20.37;;;8.43;;
71095;SDS011;58753;49.440;11.126;2023-02-12T06:20:44;18.03;;;7.20;;
71095;SDS011;58753;49.440;11.126;2023-02-12T06:23:09;18.67;;;8.43;;
71095;SDS011;58753;49.440;11.126;2023-02-12T06:25:35;20.00;;;9.10;;
71095;SDS011;58753;49.440;11.126;2023-02-12T06:28:00;16.45;;;7.38;;
71095;SDS011;58753;49.440;11.126;2023-02-12T06:30:25;23.17;;;9.23;;
71095;SDS011;58753;49.440;11.126;2023-02-12T06:32:51;19.30;;;8.20;;
71095;SDS011;58753;49.440;11.126;2023-02-12T06:35:16;17.50;;;8.23;;
71095;SDS011;58753;49.440;11.126;2023-02-12T06:37:41;22.97;;;7.83;;
71095;SDS011;58753;49.440;11.126;2023-02-12T06:40:07;22.70;;;9.00;;
71095;SDS011;58753;49.440;11.126;2023-02-12T06:42:33;18.63;;;7.88;;
71095;SDS011;58753;49.440;11.126;2023-02-12T06:44:58;16.70;;;7.60;;
71095;SDS011;58753;49.440;11.126;2023-02-12T06:47:23;18.92;;;8.13;;
71095;SDS011;58753;49.440;11.126;2023-02-12T06:49:49;21.33;;;9.00;;
71095;SDS011;58753;49.440;11.126;2023-02-12T06:52:14;20.83;;;8.63;;
71095;SDS011;58753;49.440;11.126;2023-02-12T06:54:39;20.40;;;8.00;;
71095;SDS011;58753;49.440;11.126;2023-02-12T06:57:05;18.77;;;8.27;;
71095;SDS011;58753;49.440;11.126;2023-02-12T06:59:30;18.35;;;8.70;;
71095;SDS011;58753;49.440;11.126;2023-02-12T07:01:56;16.10;;;7.93;;
71095;SDS011;58753;49.440;11.126;2023-02-12T07:04:21;21.70;;;8.87;;
71095;SDS011;58753;49.440;11.126;2023-02-12T07:06:46;21.73;;;8.50;;
71095;SDS011;58753;49.440;11.126;2023-02-12T07:09:12;18.63;;;8.88;;
71095;SDS011;58753;49.440;11.126;2023-02-12T07:11:38;17.43;;;8.63;;
71095;SDS011;58753;49.440;11.126;2023-02-12T07:14:03;22.25;;;8.90;;
71095;SDS011;58753;49.440;11.126;2023-02-12T07:16:29;26.10;;;10.57;;
71095;SDS011;58753;49.440;11.126;2023-02-12T07:18:55;26.43;;;10.97;;
71095;SDS011;58753;49.440;11.126;2023-02-12T07:21:20;24.17;;;9.90;;
71095;SDS011;58753;49.440;11.126;2023-02-12T07:23:46;17.27;;;8.23;;
71095;SDS011;58753;49.440;11.126;2023-02-12T07:26:13;17.58;;;8.32;;
71095;SDS011;58753;49.440;11.126;2023-02-12T07:28:40;18.37;;;8.10;;
71095;SDS011;58753;49.440;11.126;2023-02-12T07:31:07;20.52;;;7.53;;
71095;SDS011;58753;49.440;11.126;2023-02-12T07:33:37;18.27;;;7.95;;
71095;SDS011;58753;49.440;11.126;2023-02-12T07:36:04;22.35;;;8.75;;
71095;SDS011;58753;49.440;11.126;2023-02-12T07:38:31;16.85;;;8.05;;
71095;SDS011;58753;49.440;11.126;2023-02-12T07:41:04;24.00;;;9.90;;
71095;SDS011;58753;49.440;11.126;2023-02-12T07:43:31;22.73;;;10.07;;
71095;SDS011;58753;49.440;11.126;2023-02-12T07:46:04;24.97;;;11.33;;
71095;SDS011;58753;49.440;11.126;2023-02-12T07:48:30;31.08;;;12.93;;
71095;SDS011;58753;49.440;11.126;2023-02-12T07:50:56;21.33;;;9.97;;
71095;SDS011;58753;49.440;11.126;2023-02-12T07:53:21;34.37;;;14.37;;
71095;SDS011;58753;49.440;11.126;2023-02-12T07:55:46;35.53;;;14.87;;
71095;SDS011;58753;49.440;11.126;2023-02-12T07:58:12;34.13;;;14.33;;
71095;SDS011;58753;49.440;11.126;2023-02-12T08:00:37;37.90;;;17.03;;
71095;SDS011;58753;49.440;11.126;2023-02-12T08:03:02;37.20;;;16.90;;
71095;SDS011;58753;49.440;11.126;2023-02-12T08:05:28;45.23;;;16.40;;
71095;SDS011;58753;49.440;11.126;2023-02-12T08:07:53;40.37;;;19.00;;
71095;SDS011;58753;49.440;11.126;2023-02-12T08:10:19;48.27;;;21.20;;
71095;SDS011;58753;49.440;11.126;2023-02-12T08:12:46;40.63;;;18.02;;
71095;SDS011;58753;49.440;11.126;2023-02-12T08:15:11;42.57;;;17.90;;
71095;SDS011;58753;49.440;11.126;2023-02-12T08:17:37;36.22;;;15.65;;
71095;SDS011;58753;49.440;11.126;2023-02-12T08:20:02;35.17;;;15.77;;
71095;SDS011;58753;49.440;11.126;2023-02-12T08:22:29;37.58;;;16.83;;
71095;SDS011;58753;49.440;11.126;2023-02-12T08:24:54;38.00;;;16.10;;
71095;SDS011;58753;49.440;11.126;2023-02-12T08:27:19;41.30;;;17.27;;
71095;SDS011;58753;49.440;11.126;2023-02-12T08:29:45;40.07;;;17.80;;
71095;SDS011;58753;49.440;11.126;2023-02-12T08:32:10;36.33;;;16.15;;
71095;SDS011;58753;49.440;11.126;2023-02-12T08:34:38;42.47;;;17.33;;
71095;SDS011;58753;49.440;11.126;2023-02-12T08:37:04;44.35;;;18.08;;
71095;SDS011;58753;49.440;11.126;2023-02-12T08:39:30;42.37;;;17.83;;
71095;SDS011;58753;49.440;11.126;2023-02-12T08:41:56;41.15;;;17.95;;
71095;SDS011;58753;49.440;11.126;2023-02-12T08:44:23;40.33;;;18.03;;
71095;SDS011;58753;49.440;11.126;2023-02-12T08:46:49;43.83;;;17.20;;
71095;SDS011;58753;49.440;11.126;2023-02-12T08:49:17;42.85;;;19.13;;
71095;SDS011;58753;49.440;11.126;2023-02-12T08:51:48;41.47;;;16.65;;
71095;SDS011;58753;49.440;11.126;2023-02-12T08:54:16;41.80;;;17.30;;
71095;SDS011;58753;49.440;11.126;2023-02-12T08:56:44;46.37;;;20.13;;
71095;SDS011;58753;49.440;11.126;2023-02-12T08:59:10;39.92;;;18.27;;
71095;SDS011;58753;49.440;11.126;2023-02-12T09:01:37;42.13;;;18.67;;
71095;SDS011;58753;49.440;11.126;2023-02-12T09:04:04;42.07;;;17.43;;
71095;SDS011;58753;49.440;11.126;2023-02-12T09:06:31;44.83;;;18.85;;
71095;SDS011;58753;49.440;11.126;2023-02-12T09:08:57;44.72;;;18.88;;
71095;SDS011;58753;49.440;11.126;2023-02-12T09:11:23;41.10;;;19.27;;
71095;SDS011;58753;49.440;11.126;2023-02-12T09:13:54;49.20;;;19.00;;
71095;SDS011;58753;49.440;11.126;2023-02-12T09:16:21;53.30;;;20.97;;
71095;SDS011;58753;49.440;11.126;2023-02-12T09:18:47;61.40;;;20.47;;
71095;SDS011;58753;49.440;11.126;2023-02-12T09:21:13;53.37;;;20.90;;
71095;SDS011;58753;49.440;11.126;2023-02-12T09:23:40;57.07;;;20.30;;
71095;SDS011;58753;49.440;11.126;2023-02-12T09:26:07;56.60;;;19.92;;
71095;SDS011;58753;49.440;11.126;2023-02-12T09:28:34;65.78;;;19.45;;
71095;SDS011;58753;49.440;11.126;2023-02-12T09:31:11;57.65;;;20.27;;
71095;SDS011;58753;49.440;11.126;2023-02-12T09:33:38;56.50;;;19.27;;
71095;SDS011;58753;49.440;11.126;2023-02-12T09:36:09;48.47;;;18.77;;
71095;SDS011;58753;49.440;11.126;2023-02-12T09:38:36;53.97;;;19.55;;
71095;SDS011;58753;49.440;11.126;2023-02-12T09:49:18;58.15;;;22.40;;
71095;SDS011;58753;49.440;11.126;2023-02-12T09:51:49;46.20;;;18.17;;
71095;SDS011;58753;49.440;11.126;2023-02-12T09:54:18;48.53;;;17.90;;
71095;SDS011;58753;49.440;11.126;2023-02-12T09:56:48;47.90;;;19.95;;
71095;SDS011;58753;49.440;11.126;2023-02-12T09:59:40;49.90;;;19.00;;
71095;SDS011;58753;49.440;11.126;2023-02-12T10:02:17;50.13;;;19.52;;
71095;SDS011;58753;49.440;11.126;2023-02-12T10:04:46;44.20;;;19.40;;
71095;SDS011;58753;49.440;11.126;2023-02-12T10:09:55;49.83;;;20.40;;
71095;SDS011;58753;49.440;11.126;2023-02-12T10:12:57;41.08;;;19.98;;
71095;SDS011;58753;49.440;11.126;2023-02-12T10:15:37;48.08;;;18.90;;
71095;SDS011;58753;49.440;11.126;2023-02-12T10:22:11;29.10;;;12.85;;
71095;SDS011;58753;49.440;11.126;2023-02-12T10:26:47;31.38;;;13.85;;
71095;SDS011;58753;49.440;11.126;2023-02-12T10:29:21;35.05;;;14.20;;
71095;SDS011;58753;49.440;11.126;2023-02-12T10:31:56;39.57;;;17.00;;
71095;SDS011;58753;49.440;11.126;2023-02-12T10:34:32;38.88;;;16.25;;
71095;SDS011;58753;49.440;11.126;2023-02-12T10:39:57;41.45;;;17.13;;
71095;SDS011;58753;49.440;11.126;2023-02-12T10:42:39;41.53;;;16.50;;
71095;SDS011;58753;49.440;11.126;2023-02-12T10:45:11;34.97;;;15.97;;
71095;SDS011;58753;49.440;11.126;2023-02-12T10:47:38;40.85;;;16.35;;
71095;SDS011;58753;49.440;11.126;2023-02-12T10:50:12;41.60;;;16.97;;
71095;SDS011;58753;49.440;11.126;2023-02-12T10:52:48;34.67;;;15.00;;
71095;SDS011;58753;49.440;11.126;2023-02-12T10:55:29;37.83;;;14.55;;
71095;SDS011;58753;49.440;11.126;2023-02-12T10:57:56;31.40;;;13.18;;
71095;SDS011;58753;49.440;11.126;2023-02-12T11:00:24;36.65;;;15.65;;
71095;SDS011;58753;49.440;11.126;2023-02-12T11:05:25;41.05;;;16.65;;
71095;SDS011;58753;49.440;11.126;2023-02-12T11:07:54;41.67;;;16.48;;
71095;SDS011;58753;49.440;11.126;2023-02-12T11:13:00;39.30;;;16.13;;
71095;SDS011;58753;49.440;11.126;2023-02-12T11:15:29;39.67;;;16.03;;
71095;SDS011;58753;49.440;11.126;2023-02-12T11:18:07;41.00;;;16.13;;
71095;SDS011;58753;49.440;11.126;2023-02-12T11:20:48;38.38;;;17.52;;
71095;SDS011;58753;49.440;11.126;2023-02-12T11:26:03;48.47;;;18.20;;
71095;SDS011;58753;49.440;11.126;2023-02-12T11:28:57;47.33;;;21.00;;
71095;SDS011;58753;49.440;11.126;2023-02-12T11:31:26;42.88;;;18.70;;
71095;SDS011;58753;49.440;11.126;2023-02-12T11:36:34;42.05;;;16.50;;
71095;SDS011;58753;49.440;11.126;2023-02-12T11:39:02;43.88;;;18.00;;
71095;SDS011;58753;49.440;11.126;2023-02-12T11:41:32;48.30;;;19.80;;
71095;SDS011;58753;49.440;11.126;2023-02-12T11:43:59;78.95;;;25.25;;
71095;SDS011;58753;49.440;11.126;2023-02-12T11:46:25;61.30;;;22.00;;
71095;SDS011;58753;49.440;11.126;2023-02-12T11:48:52;42.78;;;17.10;;
71095;SDS011;58753;49.440;11.126;2023-02-12T11:51:26;54.70;;;19.08;;
71095;SDS011;58753;49.440;11.126;2023-02-12T11:53:54;47.40;;;18.83;;
71095;SDS011;58753;49.440;11.126;2023-02-12T11:56:22;44.92;;;17.05;;
71095;SDS011;58753;49.440;11.126;2023-02-12T11:58:48;43.70;;;17.87;;
71095;SDS011;58753;49.440;11.126;2023-02-12T12:08:46;40.73;;;17.93;;
71095;SDS011;58753;49.440;11.126;2023-02-12T12:13:51;35.15;;;16.05;;
71095;SDS011;58753;49.440;11.126;2023-02-12T12:16:28;40.43;;;16.47;;
71095;SDS011;58753;49.440;11.126;2023-02-12T12:19:27;40.10;;;15.18;;
71095;SDS011;58753;49.440;11.126;2023-02-12T12:22:22;43.67;;;18.42;;
71095;SDS011;58753;49.440;11.126;2023-02-12T12:24:59;37.30;;;15.93;;
71095;SDS011;58753;49.440;11.126;2023-02-12T12:30:23;31.90;;;13.67;;
71095;SDS011;58753;49.440;11.126;2023-02-12T12:33:14;38.85;;;14.65;;
71095;SDS011;58753;49.440;11.126;2023-02-12T12:35:51;34.85;;;14.07;;
71095;SDS011;58753;49.440;11.126;2023-02-12T12:41:28;32.58;;;15.52;;
71095;SDS011;58753;49.440;11.126;2023-02-12T12:49:47;37.25;;;15.88;;
71095;SDS011;58753;49.440;11.126;2023-02-12T13:10:53;39.33;;;15.97;;
71095;SDS011;58753;49.440;11.126;2023-02-12T13:13:36;34.37;;;14.13;;
71095;SDS011;58753;49.440;11.126;2023-02-12T13:16:17;34.40;;;14.75;;
71095;SDS011;58753;49.440;11.126;2023-02-12T13:21:57;33.65;;;13.18;;
71095;SDS011;58753;49.440;11.126;2023-02-12T13:27:06;35.93;;;17.07;;
71095;SDS011;58753;49.440;11.126;2023-02-12T13:29:49;38.00;;;16.45;;
71095;SDS011;58753;49.440;11.126;2023-02-12T13:34:58;32.65;;;14.35;;
71095;SDS011;58753;49.440;11.126;2023-02-12T13:39:59;33.50;;;14.43;;
71095;SDS011;58753;49.440;11.126;2023-02-12T13:42:41;31.83;;;14.13;;
71095;SDS011;58753;49.440;11.126;2023-02-12T13:48:02;33.80;;;14.07;;
71095;SDS011;58753;49.440;11.126;2023-02-12T13:53:00;28.30;;;13.13;;
71095;SDS011;58753;49.440;11.126;2023-02-12T13:56:23;28.75;;;12.77;;
71095;SDS011;58753;49.440;11.126;2023-02-12T14:03:27;30.38;;;14.90;;
71095;SDS011;58753;49.440;11.126;2023-02-12T14:08:44;29.95;;;13.05;;
71095;SDS011;58753;49.440;11.126;2023-02-12T14:11:15;31.47;;;14.10;;
71095;SDS011;58753;49.440;11.126;2023-02-12T14:13:47;31.75;;;14.60;;
71095;SDS011;58753;49.440;11.126;2023-02-12T14:16:18;27.60;;;13.27;;
71095;SDS011;58753;49.440;11.126;2023-02-12T14:22:05;28.77;;;13.68;;
71095;SDS011;58753;49.440;11.126;2023-02-12T14:27:01;30.43;;;12.90;;
71095;SDS011;58753;49.440;11.126;2023-02-12T14:29:28;30.88;;;13.05;;
71095;SDS011;58753;49.440;11.126;2023-02-12T14:31:54;25.97;;;12.73;;
71095;SDS011;58753;49.440;11.126;2023-02-12T14:36:45;30.80;;;13.77;;
71095;SDS011;58753;49.440;11.126;2023-02-12T14:45:25;30.98;;;13.30;;
71095;SDS011;58753;49.440;11.126;2023-02-12T14:49:53;32.10;;;13.97;;
71095;SDS011;58753;49.440;11.126;2023-02-12T14:52:25;32.10;;;13.63;;
71095;SDS011;58753;49.440;11.126;2023-02-12T14:54:54;29.48;;;13.80;;
71095;SDS011;58753;49.440;11.126;2023-02-12T15:00:06;30.92;;;13.88;;
71095;SDS011;58753;49.440;11.126;2023-02-12T15:02:47;29.97;;;14.30;;
71095;SDS011;58753;49.440;11.126;2023-02-12T15:05:27;32.13;;;13.95;;
71095;SDS011;58753;49.440;11.126;2023-02-12T15:07:57;29.58;;;13.57;;
71095;SDS011;58753;49.440;11.126;2023-02-12T15:10:27;28.70;;;14.05;;
71095;SDS011;58753;49.440;11.126;2023-02-12T15:13:14;29.75;;;14.32;;
71095;SDS011;58753;49.440;11.126;2023-02-12T15:23:46;27.15;;;12.10;;
71095;SDS011;58753;49.440;11.126;2023-02-12T15:26:13;30.17;;;14.02;;
71095;SDS011;58753;49.440;11.126;2023-02-12T15:28:48;27.70;;;13.13;;
71095;SDS011;58753;49.440;11.126;2023-02-12T15:31:16;36.00;;;15.75;;
71095;SDS011;58753;49.440;11.126;2023-02-12T15:33:48;38.05;;;14.27;;
71095;SDS011;58753;49.440;11.126;2023-02-12T15:36:19;36.97;;;15.90;;
71095;SDS011;58753;49.440;11.126;2023-02-12T15:38:48;31.30;;;14.43;;
71095;SDS011;58753;49.440;11.126;2023-02-12T15:41:24;30.27;;;13.33;;
71095;SDS011;58753;49.440;11.126;2023-02-12T15:43:52;33.85;;;13.55;;
71095;SDS011;58753;49.440;11.126;2023-02-12T15:46:18;33.80;;;14.48;;
71095;SDS011;58753;49.440;11.126;2023-02-12T15:48:43;33.10;;;14.10;;
71095;SDS011;58753;49.440;11.126;2023-02-12T15:51:14;32.75;;;14.13;;
71095;SDS011;58753;49.440;11.126;2023-02-12T15:54:03;29.50;;;13.20;;
71095;SDS011;58753;49.440;11.126;2023-02-12T15:56:30;33.83;;;14.90;;
71095;SDS011;58753;49.440;11.126;2023-02-12T15:58:58;32.35;;;14.63;;
71095;SDS011;58753;49.440;11.126;2023-02-12T16:01:28;33.08;;;13.25;;
71095;SDS011;58753;49.440;11.126;2023-02-12T16:03:59;34.40;;;14.15;;
71095;SDS011;58753;49.440;11.126;2023-02-12T16:06:27;32.70;;;12.40;;
71095;SDS011;58753;49.440;11.126;2023-02-12T16:11:47;28.02;;;12.52;;
71095;SDS011;58753;49.440;11.126;2023-02-12T16:17:44;26.75;;;11.60;;
71095;SDS011;58753;49.440;11.126;2023-02-12T16:22:40;33.20;;;12.82;;
71095;SDS011;58753;49.440;11.126;2023-02-12T16:25:14;31.65;;;12.18;;
71095;SDS011;58753;49.440;11.126;2023-02-12T16:27:48;31.00;;;12.40;;
71095;SDS011;58753;49.440;11.126;2023-02-12T16:32:54;29.73;;;12.05;;
71095;SDS011;58753;49.440;11.126;2023-02-12T16:35:31;31.80;;;13.02;;
71095;SDS011;58753;49.440;11.126;2023-02-12T16:40:28;34.63;;;13.00;;
71095;SDS011;58753;49.440;11.126;2023-02-12T16:42:57;32.63;;;13.88;;
71095;SDS011;58753;49.440;11.126;2023-02-12T16:47:59;29.38;;;12.25;;
71095;SDS011;58753;49.440;11.126;2023-02-12T16:50:34;29.65;;;13.38;;
71095;SDS011;58753;49.440;11.126;2023-02-12T16:53:07;28.30;;;13.07;;
71095;SDS011;58753;49.440;11.126;2023-02-12T16:55:47;33.13;;;13.75;;
71095;SDS011;58753;49.440;11.126;2023-02-12T16:58:13;37.85;;;13.93;;
71095;SDS011;58753;49.440;11.126;2023-02-12T17:00:38;38.23;;;14.10;;
71095;SDS011;58753;49.440;11.126;2023-02-12T17:03:03;34.03;;;13.83;;
71095;SDS011;58753;49.440;11.126;2023-02-12T17:05:29;35.22;;;14.73;;
71095;SDS011;58753;49.440;11.126;2023-02-12T17:07:54;32.80;;;14.13;;
71095;SDS011;58753;49.440;11.126;2023-02-12T17:10:20;39.80;;;15.57;;
71095;SDS011;58753;49.440;11.126;2023-02-12T17:12:46;35.03;;;13.97;;
71095;SDS011;58753;49.440;11.126;2023-02-12T17:15:16;35.28;;;14.73;;
71095;SDS011;58753;49.440;11.126;2023-02-12T17:17:52;38.35;;;16.63;;
71095;SDS011;58753;49.440;11.126;2023-02-12T17:20:17;37.23;;;16.10;;
71095;SDS011;58753;49.440;11.126;2023-02-12T17:22:44;38.03;;;14.30;;
71095;SDS011;58753;49.440;11.126;2023-02-12T17:25:14;32.88;;;13.68;;
71095;SDS011;58753;49.440;11.126;2023-02-12T17:27:39;31.90;;;13.33;;
71095;SDS011;58753;49.440;11.126;2023-02-12T17:30:04;27.30;;;13.10;;
71095;SDS011;58753;49.440;11.126;2023-02-12T17:32:31;29.70;;;12.18;;
71095;SDS011;58753;49.440;11.126;2023-02-12T17:34:56;27.27;;;11.70;;
71095;SDS011;58753;49.440;11.126;2023-02-12T17:37:22;24.23;;;11.60;;